createdAt,value
2017-09-09T00:01:16.890Z,10.47
2017-09-09T00:03:43.639Z,10.33
2017-09-09T00:06:10.101Z,11.70
2017-09-09T00:08:36.962Z,11.53
2017-09-09T00:11:03.372Z,6.30
2017-09-09T00:13:30.474Z,6.40
2017-09-09T00:15:56.811Z,6.90
2017-09-09T00:18:23.621Z,7.50
2017-09-09T00:20:50.090Z,7.97
2017-09-09T00:23:16.444Z,7.00
2017-09-09T00:25:45.038Z,7.30
2017-09-09T00:28:11.425Z,8.37
2017-09-09T00:30:38.868Z,9.53
2017-09-09T00:33:05.288Z,9.13
2017-09-09T00:35:32.238Z,8.87
2017-09-09T00:37:58.955Z,9.80
2017-09-09T00:40:25.358Z,8.60
2017-09-09T00:42:51.823Z,7.73
2017-09-09T00:45:18.194Z,8.80
2017-09-09T00:47:44.651Z,8.17
2017-09-09T00:50:11.134Z,10.73
2017-09-09T00:52:37.659Z,9.10
2017-09-09T00:55:04.066Z,8.90
2017-09-09T00:57:30.940Z,10.20
2017-09-09T00:59:58.142Z,8.57
2017-09-09T01:02:24.499Z,9.20
2017-09-09T01:04:50.982Z,9.70
2017-09-09T01:07:17.419Z,10.33
2017-09-09T01:09:43.794Z,10.57
2017-09-09T01:12:10.254Z,10.63
2017-09-09T01:14:36.731Z,9.33
2017-09-09T01:17:03.171Z,9.37
2017-09-09T01:19:29.642Z,8.30
2017-09-09T01:21:56.050Z,10.43
2017-09-09T01:24:22.487Z,8.80
2017-09-09T01:26:48.918Z,6.60
2017-09-09T01:29:16.177Z,8.00
2017-09-09T01:31:42.559Z,7.37
2017-09-09T01:34:08.909Z,8.20
2017-09-09T01:36:35.310Z,9.50
2017-09-09T01:39:01.707Z,9.20
2017-09-09T01:41:28.144Z,8.80
2017-09-09T01:43:59.728Z,8.77
2017-09-09T01:46:26.110Z,6.60
2017-09-09T01:48:52.643Z,9.30
2017-09-09T01:51:19.001Z,9.50
2017-09-09T01:53:45.471Z,10.40
2017-09-09T01:56:12.080Z,10.17
2017-09-09T01:58:38.507Z,11.37
2017-09-09T02:01:04.911Z,12.57
2017-09-09T02:03:31.294Z,11.73
2017-09-09T02:05:57.642Z,11.10
2017-09-09T02:08:23.974Z,9.87
2017-09-09T02:10:50.293Z,10.77
2017-09-09T02:13:16.798Z,11.70
2017-09-09T02:15:43.188Z,12.10
2017-09-09T02:18:09.535Z,12.23
2017-09-09T02:20:36.262Z,13.77
2017-09-09T02:23:02.643Z,13.67
2017-09-09T02:25:34.159Z,11.67
2017-09-09T02:28:00.528Z,11.37
2017-09-09T02:30:26.904Z,11.67
2017-09-09T02:32:53.320Z,8.30
2017-09-09T02:35:19.733Z,8.30
2017-09-09T02:37:46.160Z,7.43
2017-09-09T02:40:12.634Z,8.90
2017-09-09T02:42:39.027Z,9.77
2017-09-09T02:45:05.475Z,11.47
2017-09-09T02:47:31.923Z,11.40
2017-09-09T02:49:58.360Z,11.57
2017-09-09T02:52:24.849Z,9.50
2017-09-09T02:54:51.215Z,8.63
2017-09-09T02:57:17.562Z,8.20
2017-09-09T02:59:44.045Z,7.90
2017-09-09T03:02:10.508Z,8.70
2017-09-09T03:04:36.911Z,9.97
2017-09-09T03:07:04.224Z,10.80
2017-09-09T03:09:30.543Z,11.83
2017-09-09T03:11:57.575Z,11.30
2017-09-09T03:14:23.974Z,12.37
2017-09-09T03:16:50.409Z,12.73
2017-09-09T03:19:16.783Z,16.07
2017-09-09T03:21:43.183Z,12.97
2017-09-09T03:24:09.673Z,13.97
2017-09-09T03:26:36.076Z,16.00
2017-09-09T03:29:02.495Z,14.80
2017-09-09T03:31:28.942Z,16.27
2017-09-09T03:33:55.395Z,14.63
2017-09-09T03:36:22.838Z,13.70
2017-09-09T03:38:49.251Z,13.30
2017-09-09T03:41:15.720Z,11.13
2017-09-09T03:43:42.222Z,9.20
2017-09-09T03:46:08.615Z,9.40
2017-09-09T03:48:35.003Z,10.40
2017-09-09T03:51:01.424Z,10.67
2017-09-09T03:53:27.825Z,8.43
2017-09-09T03:55:54.135Z,9.23
2017-09-09T03:58:20.478Z,10.47
2017-09-09T04:00:46.806Z,9.40
2017-09-09T04:03:13.210Z,9.93
2017-09-09T04:05:39.582Z,11.73
2017-09-09T04:08:05.928Z,9.97
2017-09-09T04:10:32.270Z,10.43
2017-09-09T04:12:58.736Z,11.27
2017-09-09T04:15:25.170Z,9.70
2017-09-09T04:17:51.590Z,9.17
2017-09-09T04:20:17.907Z,8.57
2017-09-09T04:22:44.270Z,8.80
2017-09-09T04:25:10.697Z,8.50
2017-09-09T04:27:37.129Z,7.67
2017-09-09T04:30:03.494Z,8.10
2017-09-09T04:32:29.915Z,8.63
2017-09-09T04:34:56.348Z,8.83
2017-09-09T04:37:22.678Z,9.80
2017-09-09T04:39:49.455Z,10.17
2017-09-09T04:42:15.912Z,11.23
2017-09-09T04:44:42.451Z,11.73
2017-09-09T04:47:08.878Z,12.70
2017-09-09T04:49:35.190Z,12.47
2017-09-09T04:52:01.823Z,11.17
2017-09-09T04:54:28.171Z,11.00
2017-09-09T04:56:54.604Z,11.47
2017-09-09T04:59:20.962Z,12.80
2017-09-09T05:01:47.283Z,14.60
2017-09-09T05:04:13.772Z,12.10
2017-09-09T05:06:40.250Z,13.07
2017-09-09T05:09:06.644Z,12.50
2017-09-09T05:11:33.062Z,14.23
2017-09-09T05:13:59.535Z,12.03
2017-09-09T05:16:25.931Z,13.00
2017-09-09T05:18:52.550Z,12.90
2017-09-09T05:21:18.966Z,11.00
2017-09-09T05:23:45.379Z,10.80
2017-09-09T05:26:11.809Z,11.63
2017-09-09T05:28:38.242Z,12.43
2017-09-09T05:31:05.774Z,11.70
2017-09-09T05:33:32.184Z,11.27
2017-09-09T05:35:58.719Z,10.00
2017-09-09T05:38:25.170Z,10.23
2017-09-09T05:40:51.534Z,9.10
2017-09-09T05:43:17.926Z,9.20
2017-09-09T05:45:44.278Z,9.57
2017-09-09T05:48:10.756Z,9.03
2017-09-09T05:50:37.260Z,8.67
2017-09-09T05:53:04.230Z,8.60
2017-09-09T05:55:30.851Z,8.27
2017-09-09T05:57:57.461Z,8.50
2017-09-09T06:00:24.066Z,9.23
2017-09-09T06:02:50.970Z,8.70
2017-09-09T06:05:17.470Z,8.03
2017-09-09T06:07:43.902Z,8.20
2017-09-09T06:10:10.264Z,7.97
2017-09-09T06:12:36.684Z,7.90
2017-09-09T06:15:03.082Z,7.40
2017-09-09T06:17:29.478Z,8.83
2017-09-09T06:19:56.440Z,8.03
2017-09-09T06:22:22.909Z,7.30
2017-09-09T06:24:49.323Z,7.87
2017-09-09T06:27:15.753Z,7.57
2017-09-09T06:29:42.523Z,7.00
2017-09-09T06:32:08.947Z,7.03
2017-09-09T06:34:35.410Z,7.20
2017-09-09T06:37:02.412Z,6.43
2017-09-09T06:39:28.845Z,6.87
2017-09-09T06:41:55.280Z,7.20
2017-09-09T06:44:21.819Z,7.30
2017-09-09T06:46:48.274Z,6.20
2017-09-09T06:49:14.706Z,7.73
2017-09-09T06:51:41.182Z,7.30
2017-09-09T06:54:07.579Z,6.97
2017-09-09T06:56:34.207Z,7.53
2017-09-09T06:59:01.212Z,7.73
2017-09-09T07:01:27.889Z,7.03
2017-09-09T07:03:54.551Z,7.50
2017-09-09T07:06:21.086Z,6.90
2017-09-09T07:08:47.909Z,7.33
2017-09-09T07:11:14.268Z,7.50
2017-09-09T07:13:40.867Z,6.53
2017-09-09T07:16:07.338Z,6.43
2017-09-09T07:18:33.961Z,6.50
2017-09-09T07:21:00.703Z,7.33
2017-09-09T07:23:27.507Z,5.90
2017-09-09T07:25:55.895Z,5.90
2017-09-09T07:28:22.723Z,5.63
2017-09-09T07:30:49.187Z,6.00
2017-09-09T07:33:15.658Z,6.07
2017-09-09T07:35:42.126Z,5.10
2017-09-09T07:38:08.492Z,6.00
2017-09-09T07:40:35.265Z,5.87
2017-09-09T07:43:02.382Z,6.13
2017-09-09T07:45:30.869Z,5.80
2017-09-09T07:47:57.922Z,5.93
2017-09-09T07:50:25.146Z,5.27
2017-09-09T07:52:53.084Z,5.57
2017-09-09T07:55:20.284Z,5.80
2017-09-09T07:57:46.631Z,6.37
2017-09-09T08:00:12.986Z,5.97
2017-09-09T08:02:40.749Z,5.50
2017-09-09T08:05:07.136Z,5.90
2017-09-09T08:07:33.540Z,5.63
2017-09-09T08:10:00.574Z,5.87
2017-09-09T08:12:27.039Z,6.17
2017-09-09T08:14:53.982Z,6.27
2017-09-09T08:17:20.608Z,5.70
2017-09-09T08:19:47.476Z,5.07
2017-09-09T08:22:14.582Z,5.50
2017-09-09T08:24:46.673Z,5.70
2017-09-09T08:27:18.208Z,5.87
2017-09-09T08:29:48.714Z,5.97
2017-09-09T08:32:15.562Z,5.60
2017-09-09T08:34:48.115Z,5.33
2017-09-09T08:37:20.445Z,5.33
2017-09-09T08:39:53.356Z,5.80
2017-09-09T08:42:20.034Z,5.60
2017-09-09T08:44:53.921Z,5.50
2017-09-09T08:47:24.231Z,5.77
2017-09-09T08:49:51.110Z,5.37
2017-09-09T08:52:20.671Z,5.67
2017-09-09T08:54:51.402Z,5.43
2017-09-09T08:57:24.298Z,5.70
2017-09-09T08:59:56.470Z,5.70
2017-09-09T09:02:29.349Z,5.70
2017-09-09T09:05:00.633Z,6.50
2017-09-09T09:07:31.893Z,5.87
2017-09-09T09:10:05.071Z,5.83
2017-09-09T09:12:32.324Z,5.07
2017-09-09T09:15:04.334Z,6.33
2017-09-09T09:17:36.496Z,7.27
2017-09-09T09:20:08.803Z,5.03
2017-09-09T09:22:41.767Z,5.50
2017-09-09T09:25:13.682Z,5.93
2017-09-09T09:27:46.012Z,5.57
2017-09-09T09:30:12.618Z,5.90
2017-09-09T09:32:39.097Z,5.20
2017-09-09T09:35:05.491Z,4.90
2017-09-09T09:37:31.922Z,5.13
2017-09-09T09:39:58.275Z,5.60
2017-09-09T09:42:24.778Z,4.80
2017-09-09T09:44:51.270Z,4.57
2017-09-09T09:47:17.690Z,5.50
2017-09-09T09:49:44.124Z,5.40
2017-09-09T09:52:10.502Z,5.57
2017-09-09T09:54:36.916Z,6.13
2017-09-09T09:57:03.263Z,5.47
2017-09-09T09:59:36.622Z,4.90
2017-09-09T10:02:07.768Z,5.17
2017-09-09T10:04:34.743Z,5.30
2017-09-09T10:07:03.398Z,4.80
2017-09-09T10:09:34.464Z,5.50
2017-09-09T10:12:09.225Z,4.40
2017-09-09T10:14:43.354Z,4.17
2017-09-09T10:17:16.765Z,4.50
2017-09-09T10:19:48.825Z,4.10
2017-09-09T10:22:20.352Z,4.33
2017-09-09T10:24:53.326Z,4.63
2017-09-09T10:27:25.696Z,5.33
2017-09-09T10:29:57.435Z,4.87
2017-09-09T10:32:29.745Z,4.17
2017-09-09T10:35:02.591Z,4.27
2017-09-09T10:37:35.958Z,4.27
2017-09-09T10:40:04.773Z,4.33
2017-09-09T10:42:33.604Z,4.20
2017-09-09T10:45:05.077Z,4.80
2017-09-09T10:47:31.876Z,5.40
2017-09-09T10:49:58.239Z,5.23
2017-09-09T10:52:24.683Z,5.07
2017-09-09T10:54:54.134Z,5.57
2017-09-09T10:57:20.643Z,5.20
2017-09-09T10:59:47.864Z,5.57
2017-09-09T11:02:14.284Z,5.37
2017-09-09T11:04:45.493Z,5.60
2017-09-09T11:07:16.125Z,5.30
2017-09-09T11:09:44.996Z,5.70
2017-09-09T11:12:13.581Z,5.33
2017-09-09T11:14:40.830Z,5.30
2017-09-09T11:17:10.695Z,5.47
2017-09-09T11:19:37.798Z,5.87
2017-09-09T11:22:10.682Z,5.50
2017-09-09T11:24:41.790Z,6.30
2017-09-09T11:27:12.998Z,6.53
2017-09-09T11:29:46.459Z,5.90
2017-09-09T11:32:16.401Z,5.77
2017-09-09T11:34:48.537Z,6.23
2017-09-09T11:37:20.454Z,6.63
2017-09-09T11:39:49.070Z,6.20
2017-09-09T11:42:22.032Z,6.30
2017-09-09T11:44:54.348Z,7.87
2017-09-09T11:47:21.320Z,6.77
2017-09-09T11:49:49.106Z,6.63
2017-09-09T11:52:20.334Z,7.20
2017-09-09T11:54:51.969Z,6.83
2017-09-09T11:57:23.972Z,6.30
2017-09-09T11:59:55.555Z,8.03
2017-09-09T12:02:28.016Z,6.73
2017-09-09T12:04:56.175Z,5.90
2017-09-09T12:07:24.758Z,6.80
2017-09-09T12:09:56.613Z,6.70
2017-09-09T12:12:29.792Z,7.30
2017-09-09T12:15:03.006Z,7.60
2017-09-09T12:17:29.690Z,7.00
2017-09-09T12:19:56.570Z,7.53
2017-09-09T12:22:23.733Z,7.40
2017-09-09T12:24:50.098Z,6.87
2017-09-09T12:27:16.450Z,6.80
2017-09-09T12:29:47.776Z,5.43
2017-09-09T12:32:33.950Z,5.37
2017-09-09T12:35:01.615Z,5.90
2017-09-09T12:37:30.474Z,5.57
2017-09-09T12:39:59.309Z,5.23
2017-09-09T12:42:32.372Z,5.13
2017-09-09T12:45:05.252Z,6.00
2017-09-09T12:47:37.594Z,5.93
2017-09-09T12:50:09.663Z,5.63
2017-09-09T12:52:44.067Z,5.90
2017-09-09T12:55:15.899Z,5.03
2017-09-09T12:57:49.216Z,4.97
2017-09-09T13:00:19.835Z,4.10
2017-09-09T13:02:51.545Z,5.57
2017-09-09T13:05:23.893Z,6.40
2017-09-09T13:07:56.001Z,5.93
2017-09-09T13:10:27.760Z,5.60
2017-09-09T13:12:55.903Z,6.60
2017-09-09T13:15:27.839Z,5.40
2017-09-09T13:17:54.535Z,6.10
2017-09-09T13:20:20.984Z,6.30
2017-09-09T13:22:47.418Z,7.17
2017-09-09T13:25:17.491Z,7.27
2017-09-09T13:27:47.939Z,6.63
2017-09-09T13:30:20.538Z,6.97
2017-09-09T13:32:53.686Z,7.13
2017-09-09T13:35:26.402Z,6.30
2017-09-09T13:37:56.796Z,7.17
2017-09-09T13:40:28.734Z,7.03
2017-09-09T13:42:56.058Z,6.90
2017-09-09T13:45:22.804Z,8.00
2017-09-09T13:47:55.443Z,6.10
2017-09-09T13:50:24.380Z,6.83
2017-09-09T13:52:56.511Z,6.40
2017-09-09T13:55:28.123Z,7.60
2017-09-09T13:57:56.976Z,7.07
2017-09-09T14:00:28.491Z,7.50
2017-09-09T14:03:01.073Z,7.00
2017-09-09T14:05:32.550Z,7.30
2017-09-09T14:08:04.689Z,5.70
2017-09-09T14:10:37.350Z,7.43
2017-09-09T14:13:13.613Z,5.83
2017-09-09T14:15:42.502Z,6.00
2017-09-09T14:18:14.994Z,4.80
2017-09-09T14:20:45.755Z,6.27
2017-09-09T14:23:18.736Z,6.13
2017-09-09T14:25:51.409Z,5.97
2017-09-09T14:28:22.533Z,4.90
2017-09-09T14:30:55.280Z,6.00
2017-09-09T14:33:29.190Z,4.60
2017-09-09T14:36:02.591Z,6.17
2017-09-09T14:38:29.106Z,5.50
2017-09-09T14:40:56.224Z,5.57
2017-09-09T14:43:30.006Z,5.07
2017-09-09T14:46:02.121Z,7.00
2017-09-09T14:48:33.906Z,4.30
2017-09-09T14:51:05.239Z,5.13
2017-09-09T14:53:33.173Z,5.80
2017-09-09T14:56:03.472Z,5.60
2017-09-09T14:58:36.148Z,4.67
2017-09-09T15:01:04.358Z,6.10
2017-09-09T15:03:30.726Z,6.23
2017-09-09T15:06:03.252Z,5.43
2017-09-09T15:08:37.137Z,5.50
2017-09-09T15:11:04.346Z,5.47
2017-09-09T15:13:32.316Z,5.37
2017-09-09T15:15:59.674Z,5.77
2017-09-09T15:18:27.104Z,5.40
2017-09-09T15:20:59.665Z,5.43
2017-09-09T15:23:31.269Z,6.50
2017-09-09T15:26:04.224Z,5.73
2017-09-09T15:28:35.668Z,5.60
